createdAt,value
2023-05-03T00:00:55.927Z,4.00
2023-05-03T00:03:23.663Z,3.50
2023-05-03T00:05:50.372Z,3.70
2023-05-03T00:08:17.006Z,4.13
2023-05-03T00:10:43.664Z,3.50
2023-05-03T00:13:10.383Z,4.17
2023-05-03T00:15:37.082Z,3.90
2023-05-03T00:18:03.741Z,4.17
2023-05-03T00:20:30.619Z,3.93
2023-05-03T00:22:57.236Z,4.10
2023-05-03T00:25:23.890Z,4.23
2023-05-03T00:27:50.549Z,4.13
2023-05-03T00:30:18.943Z,3.90
2023-05-03T00:32:45.703Z,4.07
2023-05-03T00:35:12.517Z,3.90
2023-05-03T00:37:39.206Z,4.07
2023-05-03T00:40:07.275Z,4.20
2023-05-03T00:42:36.218Z,4.03
2023-05-03T00:45:04.912Z,4.07
2023-05-03T00:47:31.983Z,4.60
2023-05-03T00:50:00.190Z,4.13
2023-05-03T00:52:27.377Z,4.00
2023-05-03T00:54:54.129Z,5.60
2023-05-03T00:57:22.823Z,4.63
2023-05-03T00:59:49.789Z,4.57
2023-05-03T01:02:16.678Z,5.00
2023-05-03T01:04:43.710Z,4.73
2023-05-03T01:07:16.532Z,5.33
2023-05-03T01:09:46.378Z,5.43
2023-05-03T01:12:28.519Z,5.90
2023-05-03T01:15:04.418Z,5.30
2023-05-03T01:17:36.646Z,5.93
2023-05-03T01:20:11.175Z,6.07
2023-05-03T01:22:50.430Z,5.90
2023-05-03T01:25:17.624Z,6.03
2023-05-03T01:27:44.261Z,6.13
2023-05-03T01:30:11.788Z,6.13
2023-05-03T01:32:38.481Z,6.07
2023-05-03T01:35:17.785Z,6.20
2023-05-03T01:37:44.503Z,5.90
2023-05-03T01:40:16.606Z,6.40
2023-05-03T01:42:43.355Z,6.20
2023-05-03T01:45:10.984Z,6.50
2023-05-03T01:47:37.767Z,6.30
2023-05-03T01:50:04.822Z,6.60
2023-05-03T01:52:31.605Z,6.53
2023-05-03T01:54:59.429Z,6.10
2023-05-03T01:57:26.124Z,6.23
2023-05-03T01:59:53.112Z,6.70
2023-05-03T02:02:20.580Z,6.43
2023-05-03T02:04:47.458Z,7.23
2023-05-03T02:07:14.219Z,6.57
2023-05-03T02:09:41.140Z,5.87
2023-05-03T02:12:08.012Z,6.70
2023-05-03T02:14:34.781Z,6.70
2023-05-03T02:17:03.033Z,6.90
2023-05-03T02:19:29.963Z,6.47
2023-05-03T02:21:56.710Z,6.70
2023-05-03T02:24:23.586Z,7.07
2023-05-03T02:26:50.672Z,7.20
2023-05-03T02:29:17.355Z,6.83
2023-05-03T02:31:45.406Z,7.20
2023-05-03T02:34:12.434Z,6.80
2023-05-03T02:36:39.266Z,6.57
2023-05-03T02:39:05.929Z,6.20
2023-05-03T02:41:33.396Z,6.47
2023-05-03T02:44:00.819Z,6.40
2023-05-03T02:46:27.737Z,6.10
2023-05-03T02:48:54.460Z,6.00
2023-05-03T02:51:21.130Z,6.60
2023-05-03T02:53:48.123Z,6.60
2023-05-03T02:56:14.751Z,6.63
2023-05-03T02:58:41.412Z,7.07
2023-05-03T03:01:08.196Z,7.17
2023-05-03T03:03:34.968Z,6.47
2023-05-03T03:06:01.969Z,7.03
2023-05-03T03:08:28.972Z,7.23
2023-05-03T03:10:59.972Z,6.90
2023-05-03T03:13:26.679Z,6.60
2023-05-03T03:15:53.521Z,7.10
2023-05-03T03:18:20.269Z,6.87
2023-05-03T03:20:46.935Z,6.90
2023-05-03T03:23:13.616Z,7.00
2023-05-03T03:25:41.317Z,6.60
2023-05-03T03:28:08.246Z,6.83
2023-05-03T03:30:35.741Z,6.37
2023-05-03T03:33:14.177Z,7.00
2023-05-03T03:35:42.325Z,6.60
2023-05-03T03:38:10.295Z,6.93
2023-05-03T03:40:42.549Z,6.63
2023-05-03T03:43:10.081Z,7.27
2023-05-03T03:45:37.301Z,7.23
2023-05-03T03:48:05.451Z,6.73
2023-05-03T03:50:32.365Z,6.67
2023-05-03T03:52:59.053Z,6.73
2023-05-03T03:55:25.720Z,6.70
2023-05-03T03:57:54.952Z,6.43
2023-05-03T04:00:23.615Z,6.80
2023-05-03T04:02:57.945Z,6.87
2023-05-03T04:05:25.165Z,7.77
2023-05-03T04:07:52.197Z,6.87
2023-05-03T04:10:20.064Z,6.90
2023-05-03T04:12:46.736Z,7.30
2023-05-03T04:15:15.368Z,7.37
2023-05-03T04:17:44.697Z,7.13
2023-05-03T04:20:12.139Z,7.00
2023-05-03T04:22:41.402Z,7.07
2023-05-03T04:25:14.051Z,6.77
2023-05-03T04:27:43.937Z,7.03
2023-05-03T04:30:11.867Z,7.33
2023-05-03T04:32:40.486Z,7.40
2023-05-03T04:35:12.276Z,7.73
2023-05-03T04:37:43.502Z,6.70
2023-05-03T04:40:14.454Z,7.00
2023-05-03T04:42:45.338Z,7.27
2023-05-03T04:45:12.060Z,7.57
2023-05-03T04:47:38.898Z,7.47
2023-05-03T04:50:06.344Z,8.33
2023-05-03T04:52:33.246Z,8.27
2023-05-03T04:55:00.451Z,7.50
2023-05-03T04:57:27.412Z,7.23
2023-05-03T04:59:54.080Z,6.87
2023-05-03T05:02:21.523Z,7.00
2023-05-03T05:04:48.295Z,6.97
2023-05-03T05:07:15.159Z,7.10
2023-05-03T05:09:44.043Z,6.43
2023-05-03T05:12:11.262Z,6.80
2023-05-03T05:14:40.793Z,7.00
2023-05-03T05:17:08.472Z,6.97
2023-05-03T05:19:35.858Z,6.40
2023-05-03T05:22:02.573Z,6.43
2023-05-03T05:24:39.423Z,6.67
2023-05-03T05:27:06.969Z,6.97
2023-05-03T05:29:33.891Z,6.20
2023-05-03T05:32:03.323Z,6.00
2023-05-03T05:34:36.319Z,6.47
2023-05-03T05:37:09.068Z,5.93
2023-05-03T05:39:35.824Z,5.70
2023-05-03T05:42:03.419Z,7.60
2023-05-03T05:44:30.224Z,5.93
2023-05-03T05:46:57.031Z,6.70
2023-05-03T05:49:24.475Z,7.27
2023-05-03T05:51:51.172Z,6.93
2023-05-03T05:54:17.853Z,7.60
2023-05-03T05:56:44.769Z,7.50
2023-05-03T05:59:11.561Z,7.17
2023-05-03T06:01:41.691Z,7.27
2023-05-03T06:04:10.150Z,7.70
2023-05-03T06:06:37.172Z,7.37
2023-05-03T06:09:13.250Z,7.10
2023-05-03T06:11:51.969Z,7.53
2023-05-03T06:14:20.560Z,7.60
2023-05-03T06:16:47.964Z,7.33
2023-05-03T06:19:15.270Z,7.73
2023-05-03T06:21:41.963Z,7.57
2023-05-03T06:24:08.709Z,6.77
2023-05-03T06:26:35.450Z,7.20
2023-05-03T06:29:03.083Z,7.27
2023-05-03T06:31:30.112Z,7.27
2023-05-03T06:33:57.776Z,8.00
2023-05-03T06:36:24.497Z,7.50
2023-05-03T06:38:51.778Z,8.07
2023-05-03T06:41:18.400Z,7.67
2023-05-03T06:43:45.138Z,7.30
2023-05-03T06:46:13.049Z,7.53
2023-05-03T06:48:39.927Z,7.87
2023-05-03T06:51:07.072Z,7.07
2023-05-03T06:53:34.083Z,7.87
2023-05-03T06:56:01.433Z,7.50
2023-05-03T06:58:28.060Z,6.90
2023-05-03T07:00:54.855Z,7.10
2023-05-03T07:03:21.843Z,7.17
2023-05-03T07:05:48.638Z,7.37
2023-05-03T07:08:15.352Z,6.63
2023-05-03T07:10:42.250Z,7.33
2023-05-03T07:13:08.887Z,7.00
2023-05-03T07:15:35.535Z,7.20
2023-05-03T07:18:03.046Z,6.73
2023-05-03T07:20:29.861Z,6.70
2023-05-03T07:22:57.522Z,6.20
2023-05-03T07:25:24.308Z,6.00
2023-05-03T07:27:51.245Z,6.50
2023-05-03T07:30:18.225Z,6.90
2023-05-03T07:32:44.961Z,6.70
2023-05-03T07:35:12.134Z,6.97
2023-05-03T07:37:38.930Z,6.97
2023-05-03T07:40:06.891Z,6.83
2023-05-03T07:42:33.635Z,7.03
2023-05-03T07:45:00.944Z,6.57
2023-05-03T07:47:31.498Z,6.40
2023-05-03T07:49:58.165Z,6.87
2023-05-03T07:52:24.925Z,6.67
2023-05-03T07:54:52.919Z,6.27
2023-05-03T07:57:19.700Z,6.57
2023-05-03T07:59:46.389Z,6.37
2023-05-03T08:02:13.112Z,6.40
2023-05-03T08:04:40.069Z,5.97
2023-05-03T08:07:07.330Z,6.10
2023-05-03T08:09:34.024Z,5.83
2023-05-03T08:12:02.275Z,5.87
2023-05-03T08:14:29.013Z,5.83
2023-05-03T08:16:55.668Z,6.10
2023-05-03T08:19:22.290Z,6.10
2023-05-03T08:21:49.114Z,6.30
2023-05-03T08:24:16.297Z,5.43
2023-05-03T08:26:44.928Z,5.57
2023-05-03T08:29:11.611Z,5.57
2023-05-03T08:31:38.416Z,5.87
2023-05-03T08:34:07.074Z,5.90
2023-05-03T08:36:34.449Z,5.40
2023-05-03T08:39:02.130Z,5.43
2023-05-03T08:41:30.879Z,5.30
2023-05-03T08:43:58.713Z,5.50
2023-05-03T08:46:25.944Z,5.20
2023-05-03T08:48:53.119Z,5.87
2023-05-03T08:51:20.510Z,5.60
2023-05-03T08:53:47.294Z,5.23
2023-05-03T08:56:18.811Z,4.80
2023-05-03T08:58:45.451Z,4.53
2023-05-03T09:01:14.353Z,4.97
2023-05-03T09:03:49.595Z,5.17
2023-05-03T09:06:22.998Z,5.43
2023-05-03T09:08:50.085Z,5.07
2023-05-03T09:11:21.011Z,5.03
2023-05-03T09:13:47.649Z,5.33
2023-05-03T09:16:22.350Z,4.87
2023-05-03T09:19:02.235Z,5.23
2023-05-03T09:21:29.478Z,4.80
2023-05-03T09:23:56.193Z,4.60
2023-05-03T09:26:34.576Z,4.70
2023-05-03T09:29:03.444Z,4.90
2023-05-03T09:31:30.884Z,4.43
2023-05-03T09:33:58.111Z,4.43
2023-05-03T09:36:25.317Z,5.00
2023-05-03T09:38:52.216Z,4.17
2023-05-03T09:41:28.906Z,4.37
2023-05-03T09:43:56.674Z,4.53
2023-05-03T09:46:26.433Z,4.93
2023-05-03T09:48:55.347Z,3.90
2023-05-03T09:51:22.496Z,4.57
2023-05-03T09:53:49.690Z,4.17
2023-05-03T09:56:17.097Z,4.43
2023-05-03T09:58:43.941Z,4.73
2023-05-03T10:01:11.044Z,4.60
2023-05-03T10:03:42.101Z,3.80
2023-05-03T10:06:32.493Z,4.50
2023-05-03T10:09:08.547Z,4.13
2023-05-03T10:11:36.315Z,4.13
2023-05-03T10:14:04.678Z,4.43
2023-05-03T10:16:33.596Z,4.23
2023-05-03T10:19:06.734Z,4.50
2023-05-03T10:21:38.002Z,4.27
2023-05-03T10:24:22.798Z,4.20
2023-05-03T10:26:50.492Z,4.17
2023-05-03T10:29:45.992Z,4.27
2023-05-03T10:32:31.480Z,3.60
2023-05-03T10:35:05.593Z,3.30
2023-05-03T10:37:33.013Z,3.80
2023-05-03T10:40:10.358Z,3.43
2023-05-03T10:42:38.245Z,3.80
2023-05-03T10:45:08.768Z,3.87
2023-05-03T10:47:35.642Z,3.83
2023-05-03T10:50:05.071Z,4.00
2023-05-03T10:52:38.170Z,3.90
2023-05-03T10:55:12.027Z,4.07
2023-05-03T10:57:40.546Z,3.70
2023-05-03T11:00:12.286Z,4.53
2023-05-03T11:02:45.440Z,4.23
2023-05-03T11:05:13.406Z,4.00
2023-05-03T11:07:40.169Z,4.47
2023-05-03T11:10:19.143Z,3.97
2023-05-03T11:12:46.002Z,3.90
2023-05-03T11:15:12.857Z,3.87
2023-05-03T11:17:39.834Z,3.37
2023-05-03T11:20:09.793Z,3.60
2023-05-03T11:22:36.550Z,3.40
2023-05-03T11:25:03.428Z,4.13
2023-05-03T11:27:30.522Z,3.30
2023-05-03T11:29:59.235Z,3.70
2023-05-03T11:32:30.306Z,3.57
2023-05-03T11:34:59.127Z,3.57
2023-05-03T11:37:26.804Z,3.00
2023-05-03T11:39:53.643Z,3.07
2023-05-03T11:42:20.401Z,3.50
2023-05-03T11:44:47.162Z,2.90
2023-05-03T11:47:13.946Z,3.43
2023-05-03T11:49:40.803Z,3.60
2023-05-03T11:52:07.521Z,3.30
2023-05-03T11:54:34.221Z,3.20
2023-05-03T11:57:10.916Z,3.40
2023-05-03T11:59:38.882Z,3.37
2023-05-03T12:02:06.934Z,3.17
2023-05-03T12:04:34.064Z,3.27
2023-05-03T12:07:02.458Z,3.40
2023-05-03T12:09:30.144Z,3.43
2023-05-03T12:11:58.699Z,3.23
2023-05-03T12:14:26.273Z,2.90
2023-05-03T12:16:54.224Z,3.00
2023-05-03T12:19:33.671Z,3.20
2023-05-03T12:22:17.959Z,2.83
2023-05-03T12:24:49.224Z,3.87
2023-05-03T12:27:18.970Z,10.20
2023-05-03T12:29:47.616Z,3.30
2023-05-03T12:32:14.925Z,3.27
2023-05-03T12:34:42.419Z,3.20
2023-05-03T12:37:11.494Z,3.60
2023-05-03T12:39:40.163Z,3.03
2023-05-03T12:42:08.861Z,3.03
2023-05-03T12:44:41.898Z,2.70
2023-05-03T12:47:10.455Z,2.73
2023-05-03T12:49:38.988Z,3.40
2023-05-03T12:52:35.287Z,3.03
2023-05-03T12:55:03.016Z,3.40
2023-05-03T12:57:31.184Z,2.97
2023-05-03T13:00:02.595Z,3.13
2023-05-03T13:05:10.875Z,3.30
2023-05-03T13:07:43.055Z,3.60
2023-05-03T13:12:40.298Z,2.97
2023-05-03T13:15:07.670Z,2.73
2023-05-03T13:17:34.842Z,2.77
2023-05-03T13:20:01.681Z,2.80
2023-05-03T13:22:28.573Z,2.80
2023-05-03T13:24:55.982Z,2.67
2023-05-03T13:27:22.664Z,2.80
2023-05-03T13:29:49.766Z,5.37
2023-05-03T13:32:16.665Z,5.93
2023-05-03T13:34:43.573Z,12.70
2023-05-03T13:37:11.413Z,3.37
2023-05-03T13:39:38.141Z,2.67
2023-05-03T13:42:04.876Z,2.83
2023-05-03T13:44:31.535Z,2.77
2023-05-03T13:46:58.240Z,2.63
2023-05-03T13:49:25.423Z,2.50
2023-05-03T13:51:52.177Z,2.23
2023-05-03T13:54:18.997Z,2.60
2023-05-03T13:56:45.646Z,3.30
2023-05-03T13:59:13.840Z,8.03
2023-05-03T14:01:41.081Z,3.00
2023-05-03T14:04:08.072Z,2.37
2023-05-03T14:06:34.910Z,2.30
2023-05-03T14:09:02.518Z,2.40
2023-05-03T14:11:30.033Z,2.40
2023-05-03T14:13:57.828Z,2.30
2023-05-03T14:18:55.961Z,2.17
2023-05-03T14:21:22.706Z,1.80
2023-05-03T14:23:52.951Z,1.90
2023-05-03T14:26:21.935Z,1.77
2023-05-03T14:28:48.557Z,2.20
2023-05-03T14:31:16.314Z,2.10
2023-05-03T14:33:43.065Z,1.90
2023-05-03T14:36:09.786Z,2.33
2023-05-03T14:38:37.174Z,2.10
2023-05-03T14:41:04.029Z,2.27
2023-05-03T14:43:31.427Z,2.30
2023-05-03T14:45:58.211Z,2.57
2023-05-03T14:48:24.936Z,2.03
2023-05-03T14:50:51.742Z,2.10
2023-05-03T14:53:18.555Z,1.77
2023-05-03T14:55:45.735Z,2.10
2023-05-03T14:58:15.785Z,2.60
2023-05-03T15:00:42.661Z,2.10
2023-05-03T15:03:11.718Z,1.90
2023-05-03T15:05:42.613Z,2.03
2023-05-03T15:08:09.291Z,1.80
2023-05-03T15:10:39.577Z,1.80
2023-05-03T15:13:06.421Z,1.80
2023-05-03T15:15:33.276Z,1.90
2023-05-03T15:17:59.993Z,2.30
2023-05-03T15:20:27.197Z,1.80
2023-05-03T15:22:53.847Z,1.80
2023-05-03T15:25:20.638Z,1.60
2023-05-03T15:27:47.440Z,1.93
2023-05-03T15:30:15.023Z,1.80
2023-05-03T15:32:41.714Z,2.47
2023-05-03T15:35:09.093Z,2.40
2023-05-03T15:37:37.024Z,1.80
2023-05-03T15:40:04.536Z,1.73
2023-05-03T15:42:31.823Z,1.83
2023-05-03T15:44:58.499Z,1.90
2023-05-03T15:47:25.179Z,1.70
2023-05-03T15:49:52.180Z,2.00
2023-05-03T15:52:18.845Z,1.53
2023-05-03T15:54:45.617Z,1.80
2023-05-03T15:57:12.815Z,19.97
2023-05-03T15:59:40.053Z,2.90
2023-05-03T16:02:07.537Z,2.67
2023-05-03T16:04:37.076Z,1.83
2023-05-03T16:07:04.546Z,1.50
2023-05-03T16:09:31.308Z,1.50
2023-05-03T16:11:59.040Z,1.87
2023-05-03T16:14:26.384Z,1.77
2023-05-03T16:16:53.857Z,1.80
2023-05-03T16:19:21.404Z,1.67
2023-05-03T16:21:48.156Z,1.80
2023-05-03T16:24:14.917Z,1.77
2023-05-03T16:26:41.782Z,2.13
2023-05-03T16:29:08.490Z,1.80
2023-05-03T16:31:35.430Z,1.90
2023-05-03T16:34:02.614Z,2.17
2023-05-03T16:36:30.147Z,2.07
2023-05-03T16:38:56.838Z,2.33
2023-05-03T16:41:24.169Z,2.03
2023-05-03T16:43:51.130Z,2.23
2023-05-03T16:46:17.837Z,2.00
2023-05-03T16:48:44.536Z,2.30
2023-05-03T16:51:11.185Z,2.40
2023-05-03T16:53:37.819Z,2.10
2023-05-03T16:56:04.550Z,2.10
2023-05-03T16:58:31.196Z,2.30
2023-05-03T17:00:57.946Z,2.10
2023-05-03T17:03:25.155Z,1.77
2023-05-03T17:05:52.161Z,2.10
2023-05-03T17:08:18.788Z,2.00
2023-05-03T17:10:45.407Z,2.07
2023-05-03T17:13:12.202Z,2.50
2023-05-03T17:15:38.969Z,2.10
2023-05-03T17:18:05.710Z,2.20
2023-05-03T17:20:33.967Z,2.23
2023-05-03T17:23:00.794Z,2.03
2023-05-03T17:25:27.426Z,2.07
2023-05-03T17:27:54.091Z,2.20
2023-05-03T17:30:21.532Z,2.40
2023-05-03T17:32:48.369Z,2.23
2023-05-03T17:35:15.156Z,2.10
2023-05-03T17:37:41.818Z,2.00
2023-05-03T17:40:08.748Z,2.30
2023-05-03T17:42:35.535Z,2.00
2023-05-03T17:45:03.951Z,2.10
2023-05-03T17:47:31.359Z,2.17
2023-05-03T17:49:58.112Z,2.00
2023-05-03T17:52:24.810Z,1.90
2023-05-03T17:54:52.282Z,2.03
2023-05-03T17:57:21.915Z,2.00
2023-05-03T17:59:48.688Z,2.00
2023-05-03T18:02:15.366Z,1.93
2023-05-03T18:04:42.122Z,2.00
2023-05-03T18:07:08.794Z,2.20
2023-05-03T18:09:35.497Z,1.97
2023-05-03T18:12:03.460Z,2.27
2023-05-03T18:14:30.193Z,2.20
2023-05-03T18:16:57.134Z,1.67
2023-05-03T18:19:24.000Z,1.90
2023-05-03T18:21:50.666Z,1.90
2023-05-03T18:24:17.341Z,2.10
2023-05-03T18:26:44.110Z,2.07
2023-05-03T18:29:10.848Z,1.73
2023-05-03T18:31:37.565Z,2.00
2023-05-03T18:34:04.309Z,2.03
2023-05-03T18:36:31.272Z,1.80
2023-05-03T18:38:57.979Z,2.60
2023-05-03T18:41:24.708Z,1.80
2023-05-03T18:43:52.005Z,2.33
2023-05-03T18:46:19.607Z,2.30
2023-05-03T18:48:46.719Z,2.10
2023-05-03T18:51:14.172Z,2.13
2023-05-03T18:53:40.842Z,2.07
2023-05-03T18:56:07.524Z,2.40
2023-05-03T18:58:34.201Z,2.40
2023-05-03T19:01:01.163Z,2.20
2023-05-03T19:03:30.961Z,2.63
2023-05-03T19:06:03.517Z,2.70
2023-05-03T19:08:30.732Z,3.00
2023-05-03T19:10:57.426Z,2.57
2023-05-03T19:13:25.369Z,2.60
2023-05-03T19:15:52.112Z,2.80
2023-05-03T19:18:18.897Z,2.70
2023-05-03T19:20:45.998Z,2.60
2023-05-03T19:23:12.690Z,2.93
2023-05-03T19:25:39.341Z,2.60
2023-05-03T19:28:07.767Z,2.70
2023-05-03T19:30:34.583Z,2.73
2023-05-03T19:33:01.337Z,3.90
2023-05-03T19:35:28.156Z,2.73
2023-05-03T19:37:54.774Z,2.70
2023-05-03T19:40:22.262Z,2.60
2023-05-03T19:42:50.428Z,2.70
2023-05-03T19:45:17.089Z,2.27
2023-05-03T19:47:44.312Z,2.30
2023-05-03T19:50:11.953Z,2.63
2023-05-03T19:52:38.570Z,2.23
2023-05-03T19:55:07.491Z,2.63
2023-05-03T19:57:34.776Z,2.50
2023-05-03T20:00:01.830Z,2.60
2023-05-03T20:02:28.838Z,2.40
2023-05-03T20:04:55.740Z,2.57
2023-05-03T20:07:22.395Z,2.67
2023-05-03T20:09:49.311Z,2.60
2023-05-03T20:12:16.066Z,2.50
2023-05-03T20:14:42.781Z,2.67
2023-05-03T20:17:09.468Z,2.50
2023-05-03T20:19:36.199Z,2.53
2023-05-03T20:22:02.901Z,2.40
2023-05-03T20:24:29.647Z,2.60
2023-05-03T20:26:56.359Z,2.40
2023-05-03T20:29:23.226Z,2.70
2023-05-03T20:31:56.131Z,2.27
2023-05-03T20:34:22.840Z,2.80
2023-05-03T20:36:50.971Z,2.30
2023-05-03T20:39:17.651Z,2.60
2023-05-03T20:41:44.552Z,2.13
2023-05-03T20:44:11.217Z,2.70
2023-05-03T20:46:38.751Z,2.37
2023-05-03T20:49:06.550Z,2.27
2023-05-03T20:51:34.959Z,2.47
2023-05-03T20:54:03.364Z,2.97
2023-05-03T20:56:31.465Z,2.70
2023-05-03T20:58:58.125Z,3.03
2023-05-03T21:01:24.865Z,2.90
2023-05-03T21:03:51.574Z,3.20
2023-05-03T21:06:18.187Z,2.80
2023-05-03T21:08:44.862Z,3.10
2023-05-03T21:11:11.537Z,3.07
2023-05-03T21:13:38.470Z,2.90
2023-05-03T21:16:07.846Z,3.20
2023-05-03T21:18:34.686Z,3.10
2023-05-03T21:21:01.485Z,3.37
2023-05-03T21:23:28.207Z,3.10
2023-05-03T21:25:56.215Z,3.20
2023-05-03T21:28:23.231Z,3.40
2023-05-03T21:30:49.913Z,3.70
2023-05-03T21:33:16.586Z,3.57
2023-05-03T21:35:43.531Z,3.53
2023-05-03T21:38:10.251Z,3.77
2023-05-03T21:40:36.866Z,3.50
2023-05-03T21:43:04.209Z,3.83
2023-05-03T21:45:30.968Z,3.83
2023-05-03T21:47:57.679Z,4.20
2023-05-03T21:50:24.523Z,3.60
2023-05-03T21:52:51.753Z,4.03
2023-05-03T21:55:19.015Z,3.87
2023-05-03T21:57:45.962Z,3.90
2023-05-03T22:00:17.564Z,3.77
2023-05-03T22:02:44.319Z,4.13
2023-05-03T22:05:11.141Z,4.20
2023-05-03T22:07:38.511Z,4.00
2023-05-03T22:10:05.885Z,4.20
2023-05-03T22:12:33.133Z,3.87
2023-05-03T22:14:59.819Z,4.13
2023-05-03T22:17:27.027Z,3.80
2023-05-03T22:19:53.879Z,3.60
2023-05-03T22:22:21.013Z,3.87
2023-05-03T22:24:47.645Z,4.00
2023-05-03T22:27:14.305Z,4.13
2023-05-03T22:29:41.066Z,4.20
2023-05-03T22:32:07.830Z,4.20
2023-05-03T22:34:34.674Z,4.07
2023-05-03T22:37:01.836Z,4.00
2023-05-03T22:39:28.508Z,4.00
2023-05-03T22:41:55.195Z,3.83
2023-05-03T22:44:21.896Z,4.30
2023-05-03T22:46:48.606Z,4.00
2023-05-03T22:49:15.493Z,4.00
2023-05-03T22:51:42.123Z,4.53
2023-05-03T22:54:08.763Z,4.43
2023-05-03T22:56:35.388Z,4.33
2023-05-03T22:59:01.997Z,4.60
2023-05-03T23:01:28.841Z,4.50
2023-05-03T23:03:56.656Z,4.73
2023-05-03T23:06:23.690Z,4.83
2023-05-03T23:08:50.349Z,4.93
2023-05-03T23:11:17.027Z,4.37
2023-05-03T23:13:43.798Z,4.70
2023-05-03T23:16:10.779Z,4.67
2023-05-03T23:18:37.725Z,5.00
2023-05-03T23:21:04.440Z,4.57
2023-05-03T23:23:31.094Z,4.80
2023-05-03T23:25:57.730Z,4.33
2023-05-03T23:28:25.520Z,4.63
2023-05-03T23:30:52.791Z,4.90
2023-05-03T23:33:19.981Z,5.13
2023-05-03T23:35:47.183Z,5.20
2023-05-03T23:38:13.915Z,4.20
2023-05-03T23:40:40.588Z,4.60
2023-05-03T23:43:07.495Z,4.90
2023-05-03T23:45:34.135Z,4.33
2023-05-03T23:48:00.909Z,4.93
2023-05-03T23:50:27.594Z,5.33
2023-05-03T23:52:54.266Z,5.13
2023-05-03T23:55:20.930Z,4.90
2023-05-03T23:57:47.600Z,5.20
